sensor_id;sensor_type;location;lat;lon;timestamp;P1;durP1;ratioP1;P2;durP2;ratioP2
4638;SDS011;2332;38.646;-9.154;2023-04-24T00:02:17;7.33;;;3.27;;
4638;SDS011;2332;38.646;-9.154;2023-04-24T00:04:43;10.07;;;2.83;;
4638;SDS011;2332;38.646;-9.154;2023-04-24T00:07:10;7.13;;;2.57;;
4638;SDS011;2332;38.646;-9.154;2023-04-24T00:09:35;10.30;;;3.30;;
4638;SDS011;2332;38.646;-9.154;2023-04-24T00:12:01;11.73;;;3.27;;
4638;SDS011;2332;38.646;-9.154;2023-04-24T00:14:29;11.10;;;3.40;;
4638;SDS011;2332;38.646;-9.154;2023-04-24T00:16:54;10.60;;;2.90;;
4638;SDS011;2332;38.646;-9.154;2023-04-24T00:19:20;8.60;;;3.40;;
4638;SDS011;2332;38.646;-9.154;2023-04-24T00:21:46;14.27;;;2.90;;
4638;SDS011;2332;38.646;-9.154;2023-04-24T00:24:11;7.53;;;3.10;;
4638;SDS011;2332;38.646;-9.154;2023-04-24T00:26:37;10.07;;;3.47;;
4638;SDS011;2332;38.646;-9.154;2023-04-24T00:29:02;9.67;;;3.23;;
4638;SDS011;2332;38.646;-9.154;2023-04-24T00:31:28;8.50;;;2.97;;
4638;SDS011;2332;38.646;-9.154;2023-04-24T00:33:53;9.67;;;3.00;;
4638;SDS011;2332;38.646;-9.154;2023-04-24T00:36:19;11.50;;;3.40;;
4638;SDS011;2332;38.646;-9.154;2023-04-24T00:38:45;16.33;;;4.53;;
4638;SDS011;2332;38.646;-9.154;2023-04-24T00:41:11;9.43;;;3.77;;
4638;SDS011;2332;38.646;-9.154;2023-04-24T00:43:36;5.93;;;3.30;;
4638;SDS011;2332;38.646;-9.154;2023-04-24T00:46:01;13.73;;;4.60;;
4638;SDS011;2332;38.646;-9.154;2023-04-24T00:48:27;10.90;;;3.37;;
4638;SDS011;2332;38.646;-9.154;2023-04-24T00:50:52;9.87;;;3.40;;
4638;SDS011;2332;38.646;-9.154;2023-04-24T00:53:18;11.57;;;3.53;;
4638;SDS011;2332;38.646;-9.154;2023-04-24T00:55:43;12.60;;;4.20;;
4638;SDS011;2332;38.646;-9.154;2023-04-24T00:58:09;13.90;;;3.00;;
4638;SDS011;2332;38.646;-9.154;2023-04-24T01:00:35;19.47;;;4.63;;
4638;SDS011;2332;38.646;-9.154;2023-04-24T01:03:00;14.17;;;4.60;;
4638;SDS011;2332;38.646;-9.154;2023-04-24T01:05:26;12.70;;;4.57;;
4638;SDS011;2332;38.646;-9.154;2023-04-24T01:07:52;11.70;;;4.33;;
4638;SDS011;2332;38.646;-9.154;2023-04-24T01:10:17;8.60;;;3.70;;
4638;SDS011;2332;38.646;-9.154;2023-04-24T01:12:45;14.63;;;3.90;;
4638;SDS011;2332;38.646;-9.154;2023-04-24T01:15:11;11.13;;;4.00;;
4638;SDS011;2332;38.646;-9.154;2023-04-24T01:17:36;16.87;;;3.80;;
4638;SDS011;2332;38.646;-9.154;2023-04-24T01:20:03;10.77;;;3.77;;
4638;SDS011;2332;38.646;-9.154;2023-04-24T01:22:30;9.37;;;3.83;;
4638;SDS011;2332;38.646;-9.154;2023-04-24T01:24:56;13.50;;;4.10;;
4638;SDS011;2332;38.646;-9.154;2023-04-24T01:27:21;14.03;;;4.60;;
4638;SDS011;2332;38.646;-9.154;2023-04-24T01:29:47;11.57;;;4.10;;
4638;SDS011;2332;38.646;-9.154;2023-04-24T01:32:14;10.30;;;3.70;;
4638;SDS011;2332;38.646;-9.154;2023-04-24T01:34:40;7.23;;;3.20;;
4638;SDS011;2332;38.646;-9.154;2023-04-24T01:37:06;8.30;;;4.30;;
4638;SDS011;2332;38.646;-9.154;2023-04-24T01:39:31;14.00;;;3.70;;
4638;SDS011;2332;38.646;-9.154;2023-04-24T01:41:58;8.17;;;4.30;;
4638;SDS011;2332;38.646;-9.154;2023-04-24T01:44:24;16.73;;;4.90;;
4638;SDS011;2332;38.646;-9.154;2023-04-24T01:46:49;8.00;;;4.07;;
4638;SDS011;2332;38.646;-9.154;2023-04-24T01:49:15;14.13;;;4.57;;
4638;SDS011;2332;38.646;-9.154;2023-04-24T01:51:40;9.90;;;4.73;;
4638;SDS011;2332;38.646;-9.154;2023-04-24T01:54:06;12.27;;;3.97;;
4638;SDS011;2332;38.646;-9.154;2023-04-24T01:56:33;10.40;;;4.20;;
4638;SDS011;2332;38.646;-9.154;2023-04-24T01:58:58;14.93;;;4.53;;
4638;SDS011;2332;38.646;-9.154;2023-04-24T02:01:25;20.77;;;4.97;;
4638;SDS011;2332;38.646;-9.154;2023-04-24T02:03:50;13.83;;;4.10;;
4638;SDS011;2332;38.646;-9.154;2023-04-24T02:06:16;13.07;;;4.30;;
4638;SDS011;2332;38.646;-9.154;2023-04-24T02:08:41;12.33;;;4.90;;
4638;SDS011;2332;38.646;-9.154;2023-04-24T02:11:08;12.10;;;4.23;;
4638;SDS011;2332;38.646;-9.154;2023-04-24T02:13:34;14.00;;;5.20;;
4638;SDS011;2332;38.646;-9.154;2023-04-24T02:15:59;13.50;;;4.63;;
4638;SDS011;2332;38.646;-9.154;2023-04-24T02:18:25;10.13;;;4.20;;
4638;SDS011;2332;38.646;-9.154;2023-04-24T02:20:50;14.30;;;4.70;;
4638;SDS011;2332;38.646;-9.154;2023-04-24T02:23:16;10.63;;;4.57;;
4638;SDS011;2332;38.646;-9.154;2023-04-24T02:25:41;9.80;;;4.30;;
4638;SDS011;2332;38.646;-9.154;2023-04-24T02:28:07;13.10;;;5.20;;
4638;SDS011;2332;38.646;-9.154;2023-04-24T02:30:32;14.07;;;5.10;;
4638;SDS011;2332;38.646;-9.154;2023-04-24T02:32:57;12.30;;;5.10;;
4638;SDS011;2332;38.646;-9.154;2023-04-24T02:38:26;12.03;;;4.73;;
4638;SDS011;2332;38.646;-9.154;2023-04-24T02:40:51;16.00;;;4.97;;
4638;SDS011;2332;38.646;-9.154;2023-04-24T02:43:17;16.67;;;4.87;;
4638;SDS011;2332;38.646;-9.154;2023-04-24T02:45:42;20.00;;;5.23;;
4638;SDS011;2332;38.646;-9.154;2023-04-24T02:48:07;12.03;;;5.47;;
4638;SDS011;2332;38.646;-9.154;2023-04-24T02:50:33;9.10;;;4.40;;
4638;SDS011;2332;38.646;-9.154;2023-04-24T02:52:58;8.30;;;4.10;;
4638;SDS011;2332;38.646;-9.154;2023-04-24T02:55:24;9.57;;;4.43;;
4638;SDS011;2332;38.646;-9.154;2023-04-24T02:57:50;21.00;;;5.30;;
4638;SDS011;2332;38.646;-9.154;2023-04-24T03:00:16;12.23;;;5.10;;
4638;SDS011;2332;38.646;-9.154;2023-04-24T03:02:41;18.40;;;5.50;;
4638;SDS011;2332;38.646;-9.154;2023-04-24T03:05:07;13.47;;;4.60;;
4638;SDS011;2332;38.646;-9.154;2023-04-24T03:07:32;12.97;;;4.70;;
4638;SDS011;2332;38.646;-9.154;2023-04-24T03:09:58;14.20;;;5.10;;
4638;SDS011;2332;38.646;-9.154;2023-04-24T03:12:23;11.43;;;5.03;;
4638;SDS011;2332;38.646;-9.154;2023-04-24T03:14:49;18.40;;;5.00;;
4638;SDS011;2332;38.646;-9.154;2023-04-24T03:17:14;15.17;;;5.17;;
4638;SDS011;2332;38.646;-9.154;2023-04-24T03:19:40;17.23;;;5.13;;
4638;SDS011;2332;38.646;-9.154;2023-04-24T03:22:05;10.80;;;4.43;;
4638;SDS011;2332;38.646;-9.154;2023-04-24T03:24:31;8.30;;;4.77;;
4638;SDS011;2332;38.646;-9.154;2023-04-24T03:26:56;13.30;;;5.43;;
4638;SDS011;2332;38.646;-9.154;2023-04-24T03:29:22;20.70;;;4.90;;
4638;SDS011;2332;38.646;-9.154;2023-04-24T03:31:47;14.00;;;5.30;;
4638;SDS011;2332;38.646;-9.154;2023-04-24T03:34:12;18.40;;;5.83;;
4638;SDS011;2332;38.646;-9.154;2023-04-24T03:36:38;14.10;;;5.17;;
4638;SDS011;2332;38.646;-9.154;2023-04-24T03:39:03;22.00;;;5.97;;
4638;SDS011;2332;38.646;-9.154;2023-04-24T03:41:29;16.17;;;5.00;;
4638;SDS011;2332;38.646;-9.154;2023-04-24T03:43:55;15.53;;;4.77;;
4638;SDS011;2332;38.646;-9.154;2023-04-24T03:46:20;23.80;;;4.90;;
4638;SDS011;2332;38.646;-9.154;2023-04-24T03:48:46;17.83;;;5.47;;
4638;SDS011;2332;38.646;-9.154;2023-04-24T03:51:11;15.07;;;4.30;;
4638;SDS011;2332;38.646;-9.154;2023-04-24T03:53:37;17.03;;;5.67;;
4638;SDS011;2332;38.646;-9.154;2023-04-24T03:56:02;9.00;;;4.53;;
4638;SDS011;2332;38.646;-9.154;2023-04-24T03:58:28;14.30;;;5.13;;
4638;SDS011;2332;38.646;-9.154;2023-04-24T04:00:53;13.17;;;4.30;;
4638;SDS011;2332;38.646;-9.154;2023-04-24T04:03:18;14.07;;;5.80;;
4638;SDS011;2332;38.646;-9.154;2023-04-24T04:05:44;15.20;;;6.13;;
4638;SDS011;2332;38.646;-9.154;2023-04-24T04:08:10;9.57;;;3.97;;
4638;SDS011;2332;38.646;-9.154;2023-04-24T04:10:35;17.63;;;5.07;;
4638;SDS011;2332;38.646;-9.154;2023-04-24T04:13:01;12.97;;;4.83;;
4638;SDS011;2332;38.646;-9.154;2023-04-24T04:15:26;14.03;;;5.00;;
4638;SDS011;2332;38.646;-9.154;2023-04-24T04:17:51;16.03;;;5.20;;
4638;SDS011;2332;38.646;-9.154;2023-04-24T04:20:17;21.37;;;5.77;;
4638;SDS011;2332;38.646;-9.154;2023-04-24T04:22:42;14.20;;;5.37;;
4638;SDS011;2332;38.646;-9.154;2023-04-24T04:25:08;11.50;;;5.90;;
4638;SDS011;2332;38.646;-9.154;2023-04-24T04:27:33;12.23;;;5.93;;
4638;SDS011;2332;38.646;-9.154;2023-04-24T04:29:59;16.70;;;5.60;;
4638;SDS011;2332;38.646;-9.154;2023-04-24T04:32:29;14.63;;;5.47;;
4638;SDS011;2332;38.646;-9.154;2023-04-24T04:34:55;13.27;;;5.20;;
4638;SDS011;2332;38.646;-9.154;2023-04-24T04:37:20;17.77;;;6.27;;
4638;SDS011;2332;38.646;-9.154;2023-04-24T04:39:46;16.03;;;5.27;;
4638;SDS011;2332;38.646;-9.154;2023-04-24T04:42:11;15.00;;;5.10;;
4638;SDS011;2332;38.646;-9.154;2023-04-24T04:44:36;19.83;;;5.50;;
4638;SDS011;2332;38.646;-9.154;2023-04-24T04:47:03;12.40;;;4.70;;
4638;SDS011;2332;38.646;-9.154;2023-04-24T04:49:31;13.53;;;4.70;;
4638;SDS011;2332;38.646;-9.154;2023-04-24T04:51:56;15.63;;;5.40;;
4638;SDS011;2332;38.646;-9.154;2023-04-24T04:54:22;19.23;;;4.73;;
4638;SDS011;2332;38.646;-9.154;2023-04-24T04:56:49;14.53;;;4.67;;
4638;SDS011;2332;38.646;-9.154;2023-04-24T04:59:15;13.33;;;5.47;;
4638;SDS011;2332;38.646;-9.154;2023-04-24T05:01:40;14.80;;;4.80;;
4638;SDS011;2332;38.646;-9.154;2023-04-24T05:04:06;14.27;;;5.00;;
4638;SDS011;2332;38.646;-9.154;2023-04-24T05:06:31;12.93;;;5.20;;
4638;SDS011;2332;38.646;-9.154;2023-04-24T05:08:57;17.97;;;5.23;;
4638;SDS011;2332;38.646;-9.154;2023-04-24T05:11:22;10.93;;;5.03;;
4638;SDS011;2332;38.646;-9.154;2023-04-24T05:13:48;15.90;;;5.00;;
4638;SDS011;2332;38.646;-9.154;2023-04-24T05:16:13;10.50;;;4.23;;
4638;SDS011;2332;38.646;-9.154;2023-04-24T05:18:38;12.07;;;4.90;;
4638;SDS011;2332;38.646;-9.154;2023-04-24T05:21:04;13.33;;;5.20;;
4638;SDS011;2332;38.646;-9.154;2023-04-24T05:23:29;14.93;;;4.80;;
4638;SDS011;2332;38.646;-9.154;2023-04-24T05:25:55;11.60;;;5.07;;
4638;SDS011;2332;38.646;-9.154;2023-04-24T05:28:21;14.20;;;5.27;;
4638;SDS011;2332;38.646;-9.154;2023-04-24T05:30:49;17.83;;;5.80;;
4638;SDS011;2332;38.646;-9.154;2023-04-24T05:33:15;10.77;;;4.80;;
4638;SDS011;2332;38.646;-9.154;2023-04-24T05:35:40;12.13;;;5.67;;
4638;SDS011;2332;38.646;-9.154;2023-04-24T05:38:11;13.70;;;5.23;;
4638;SDS011;2332;38.646;-9.154;2023-04-24T05:40:36;14.70;;;5.50;;
4638;SDS011;2332;38.646;-9.154;2023-04-24T05:43:01;12.63;;;5.30;;
4638;SDS011;2332;38.646;-9.154;2023-04-24T05:45:27;19.67;;;5.90;;
4638;SDS011;2332;38.646;-9.154;2023-04-24T05:47:52;13.30;;;5.47;;
4638;SDS011;2332;38.646;-9.154;2023-04-24T05:50:17;13.33;;;5.13;;
4638;SDS011;2332;38.646;-9.154;2023-04-24T05:52:43;11.43;;;5.60;;
4638;SDS011;2332;38.646;-9.154;2023-04-24T05:55:08;12.23;;;5.73;;
4638;SDS011;2332;38.646;-9.154;2023-04-24T05:57:34;16.43;;;6.60;;
4638;SDS011;2332;38.646;-9.154;2023-04-24T05:59:59;19.57;;;5.90;;
4638;SDS011;2332;38.646;-9.154;2023-04-24T06:02:24;12.50;;;6.53;;
4638;SDS011;2332;38.646;-9.154;2023-04-24T06:04:50;23.73;;;7.47;;
4638;SDS011;2332;38.646;-9.154;2023-04-24T06:07:15;13.50;;;5.50;;
4638;SDS011;2332;38.646;-9.154;2023-04-24T06:09:40;8.50;;;5.20;;
4638;SDS011;2332;38.646;-9.154;2023-04-24T06:12:06;12.97;;;5.50;;
4638;SDS011;2332;38.646;-9.154;2023-04-24T06:14:33;13.23;;;5.27;;
4638;SDS011;2332;38.646;-9.154;2023-04-24T06:16:58;10.87;;;5.40;;
4638;SDS011;2332;38.646;-9.154;2023-04-24T06:19:24;10.20;;;5.70;;
4638;SDS011;2332;38.646;-9.154;2023-04-24T06:21:49;8.80;;;4.83;;
4638;SDS011;2332;38.646;-9.154;2023-04-24T06:24:15;12.63;;;5.77;;
4638;SDS011;2332;38.646;-9.154;2023-04-24T06:26:42;22.53;;;7.00;;
4638;SDS011;2332;38.646;-9.154;2023-04-24T06:29:08;9.23;;;5.20;;
4638;SDS011;2332;38.646;-9.154;2023-04-24T06:31:33;17.23;;;5.90;;
4638;SDS011;2332;38.646;-9.154;2023-04-24T06:34:02;12.43;;;5.47;;
4638;SDS011;2332;38.646;-9.154;2023-04-24T06:36:28;21.13;;;5.57;;
4638;SDS011;2332;38.646;-9.154;2023-04-24T06:38:53;13.87;;;5.10;;
4638;SDS011;2332;38.646;-9.154;2023-04-24T06:41:19;8.80;;;4.80;;
4638;SDS011;2332;38.646;-9.154;2023-04-24T06:43:44;16.23;;;5.53;;
4638;SDS011;2332;38.646;-9.154;2023-04-24T06:46:10;11.30;;;4.53;;
4638;SDS011;2332;38.646;-9.154;2023-04-24T06:48:35;9.10;;;5.27;;
4638;SDS011;2332;38.646;-9.154;2023-04-24T06:51:00;11.40;;;4.57;;
4638;SDS011;2332;38.646;-9.154;2023-04-24T06:53:26;9.30;;;4.20;;
4638;SDS011;2332;38.646;-9.154;2023-04-24T06:55:52;7.90;;;3.40;;
4638;SDS011;2332;38.646;-9.154;2023-04-24T06:58:17;8.80;;;3.77;;
4638;SDS011;2332;38.646;-9.154;2023-04-24T07:00:43;13.60;;;3.90;;
4638;SDS011;2332;38.646;-9.154;2023-04-24T07:03:11;8.90;;;3.33;;
4638;SDS011;2332;38.646;-9.154;2023-04-24T07:05:36;10.27;;;3.20;;
4638;SDS011;2332;38.646;-9.154;2023-04-24T07:08:03;10.03;;;3.00;;
4638;SDS011;2332;38.646;-9.154;2023-04-24T07:10:28;8.57;;;3.20;;
4638;SDS011;2332;38.646;-9.154;2023-04-24T07:12:54;13.97;;;2.77;;
4638;SDS011;2332;38.646;-9.154;2023-04-24T07:15:21;10.80;;;3.00;;
4638;SDS011;2332;38.646;-9.154;2023-04-24T07:17:47;8.63;;;3.37;;
4638;SDS011;2332;38.646;-9.154;2023-04-24T07:20:12;9.47;;;3.10;;
4638;SDS011;2332;38.646;-9.154;2023-04-24T07:22:39;5.30;;;3.03;;
4638;SDS011;2332;38.646;-9.154;2023-04-24T07:25:05;6.50;;;3.00;;
4638;SDS011;2332;38.646;-9.154;2023-04-24T07:27:31;7.87;;;3.00;;
4638;SDS011;2332;38.646;-9.154;2023-04-24T07:29:56;8.70;;;3.13;;
4638;SDS011;2332;38.646;-9.154;2023-04-24T07:32:21;9.70;;;2.93;;
4638;SDS011;2332;38.646;-9.154;2023-04-24T07:34:47;7.07;;;2.97;;
4638;SDS011;2332;38.646;-9.154;2023-04-24T07:37:12;9.20;;;3.30;;
4638;SDS011;2332;38.646;-9.154;2023-04-24T07:39:38;7.50;;;3.30;;
4638;SDS011;2332;38.646;-9.154;2023-04-24T07:42:03;8.03;;;2.67;;
4638;SDS011;2332;38.646;-9.154;2023-04-24T07:44:29;4.93;;;2.70;;
4638;SDS011;2332;38.646;-9.154;2023-04-24T07:46:55;4.73;;;2.60;;
4638;SDS011;2332;38.646;-9.154;2023-04-24T07:49:21;6.27;;;2.90;;
4638;SDS011;2332;38.646;-9.154;2023-04-24T07:51:46;13.40;;;3.20;;
4638;SDS011;2332;38.646;-9.154;2023-04-24T07:54:11;8.13;;;3.87;;
4638;SDS011;2332;38.646;-9.154;2023-04-24T07:56:37;4.17;;;2.70;;
4638;SDS011;2332;38.646;-9.154;2023-04-24T07:59:04;4.60;;;2.80;;
4638;SDS011;2332;38.646;-9.154;2023-04-24T08:01:29;6.70;;;3.60;;
4638;SDS011;2332;38.646;-9.154;2023-04-24T08:03:55;6.73;;;3.43;;
4638;SDS011;2332;38.646;-9.154;2023-04-24T08:06:21;4.90;;;2.87;;
4638;SDS011;2332;38.646;-9.154;2023-04-24T08:08:46;11.13;;;3.43;;
4638;SDS011;2332;38.646;-9.154;2023-04-24T08:11:11;7.90;;;3.13;;
4638;SDS011;2332;38.646;-9.154;2023-04-24T08:13:37;9.27;;;3.30;;
4638;SDS011;2332;38.646;-9.154;2023-04-24T08:16:02;6.50;;;3.70;;
4638;SDS011;2332;38.646;-9.154;2023-04-24T08:18:27;5.03;;;2.57;;
4638;SDS011;2332;38.646;-9.154;2023-04-24T08:20:53;8.03;;;3.43;;
4638;SDS011;2332;38.646;-9.154;2023-04-24T08:23:18;4.13;;;3.33;;
4638;SDS011;2332;38.646;-9.154;2023-04-24T08:25:44;6.57;;;3.00;;
4638;SDS011;2332;38.646;-9.154;2023-04-24T08:28:09;7.73;;;3.97;;
4638;SDS011;2332;38.646;-9.154;2023-04-24T08:30:36;9.17;;;3.37;;
4638;SDS011;2332;38.646;-9.154;2023-04-24T08:33:01;4.87;;;2.90;;
4638;SDS011;2332;38.646;-9.154;2023-04-24T08:35:26;11.33;;;3.57;;
4638;SDS011;2332;38.646;-9.154;2023-04-24T08:37:52;8.33;;;3.90;;
4638;SDS011;2332;38.646;-9.154;2023-04-24T08:40:19;6.33;;;4.10;;
4638;SDS011;2332;38.646;-9.154;2023-04-24T08:42:47;5.43;;;3.50;;
4638;SDS011;2332;38.646;-9.154;2023-04-24T08:45:12;6.93;;;3.40;;
4638;SDS011;2332;38.646;-9.154;2023-04-24T08:47:38;6.33;;;3.60;;
4638;SDS011;2332;38.646;-9.154;2023-04-24T08:50:04;7.30;;;4.00;;
4638;SDS011;2332;38.646;-9.154;2023-04-24T08:52:32;6.40;;;3.63;;
4638;SDS011;2332;38.646;-9.154;2023-04-24T08:54:57;9.17;;;4.57;;
4638;SDS011;2332;38.646;-9.154;2023-04-24T08:57:23;7.00;;;4.00;;
4638;SDS011;2332;38.646;-9.154;2023-04-24T08:59:50;5.43;;;3.93;;
4638;SDS011;2332;38.646;-9.154;2023-04-24T09:02:15;9.30;;;4.27;;
4638;SDS011;2332;38.646;-9.154;2023-04-24T09:04:41;5.80;;;4.00;;
4638;SDS011;2332;38.646;-9.154;2023-04-24T09:07:08;4.80;;;4.07;;
4638;SDS011;2332;38.646;-9.154;2023-04-24T09:09:35;5.07;;;3.90;;
4638;SDS011;2332;38.646;-9.154;2023-04-24T09:12:01;5.33;;;3.73;;
4638;SDS011;2332;38.646;-9.154;2023-04-24T09:14:27;7.50;;;3.77;;
4638;SDS011;2332;38.646;-9.154;2023-04-24T09:16:53;5.10;;;4.10;;
4638;SDS011;2332;38.646;-9.154;2023-04-24T09:19:18;7.47;;;3.83;;
4638;SDS011;2332;38.646;-9.154;2023-04-24T09:21:45;5.43;;;3.97;;
4638;SDS011;2332;38.646;-9.154;2023-04-24T09:24:14;6.37;;;3.90;;
4638;SDS011;2332;38.646;-9.154;2023-04-24T09:26:42;5.70;;;3.77;;
4638;SDS011;2332;38.646;-9.154;2023-04-24T09:29:08;5.33;;;4.33;;
4638;SDS011;2332;38.646;-9.154;2023-04-24T09:31:38;9.77;;;4.70;;
4638;SDS011;2332;38.646;-9.154;2023-04-24T09:34:04;9.87;;;4.80;;
4638;SDS011;2332;38.646;-9.154;2023-04-24T09:36:33;10.60;;;4.93;;
4638;SDS011;2332;38.646;-9.154;2023-04-24T09:39:00;6.20;;;3.83;;
4638;SDS011;2332;38.646;-9.154;2023-04-24T09:41:26;5.87;;;3.90;;
4638;SDS011;2332;38.646;-9.154;2023-04-24T09:43:55;8.80;;;4.63;;
4638;SDS011;2332;38.646;-9.154;2023-04-24T09:46:30;7.23;;;4.20;;
4638;SDS011;2332;38.646;-9.154;2023-04-24T09:48:56;5.53;;;3.93;;
4638;SDS011;2332;38.646;-9.154;2023-04-24T09:51:34;12.00;;;4.10;;
4638;SDS011;2332;38.646;-9.154;2023-04-24T09:54:01;6.77;;;4.10;;
4638;SDS011;2332;38.646;-9.154;2023-04-24T09:56:27;8.83;;;4.53;;
4638;SDS011;2332;38.646;-9.154;2023-04-24T09:58:53;8.50;;;3.63;;
4638;SDS011;2332;38.646;-9.154;2023-04-24T10:01:31;5.50;;;4.07;;
4638;SDS011;2332;38.646;-9.154;2023-04-24T10:03:57;7.10;;;4.20;;
4638;SDS011;2332;38.646;-9.154;2023-04-24T10:06:23;8.93;;;4.20;;
4638;SDS011;2332;38.646;-9.154;2023-04-24T10:08:55;6.83;;;4.13;;
4638;SDS011;2332;38.646;-9.154;2023-04-24T10:11:23;6.10;;;3.60;;
4638;SDS011;2332;38.646;-9.154;2023-04-24T10:13:49;4.97;;;4.17;;
4638;SDS011;2332;38.646;-9.154;2023-04-24T10:16:14;7.03;;;3.40;;
4638;SDS011;2332;38.646;-9.154;2023-04-24T10:18:49;4.07;;;3.27;;
4638;SDS011;2332;38.646;-9.154;2023-04-24T10:21:15;7.13;;;3.37;;
4638;SDS011;2332;38.646;-9.154;2023-04-24T10:23:40;5.97;;;3.27;;
4638;SDS011;2332;38.646;-9.154;2023-04-24T10:26:06;3.87;;;3.43;;
4638;SDS011;2332;38.646;-9.154;2023-04-24T10:28:32;3.70;;;3.07;;
4638;SDS011;2332;38.646;-9.154;2023-04-24T10:30:59;5.40;;;3.27;;
4638;SDS011;2332;38.646;-9.154;2023-04-24T10:33:24;7.90;;;3.50;;
4638;SDS011;2332;38.646;-9.154;2023-04-24T10:35:51;3.70;;;3.40;;
4638;SDS011;2332;38.646;-9.154;2023-04-24T10:38:18;6.20;;;3.70;;
4638;SDS011;2332;38.646;-9.154;2023-04-24T10:40:49;4.73;;;3.33;;
4638;SDS011;2332;38.646;-9.154;2023-04-24T10:43:16;4.40;;;3.40;;
4638;SDS011;2332;38.646;-9.154;2023-04-24T10:45:41;3.53;;;2.80;;
4638;SDS011;2332;38.646;-9.154;2023-04-24T10:48:26;4.93;;;2.90;;
4638;SDS011;2332;38.646;-9.154;2023-04-24T10:50:52;3.33;;;3.10;;
4638;SDS011;2332;38.646;-9.154;2023-04-24T10:53:21;4.30;;;2.03;;
4638;SDS011;2332;38.646;-9.154;2023-04-24T10:55:52;4.27;;;2.07;;
4638;SDS011;2332;38.646;-9.154;2023-04-24T10:58:22;3.83;;;2.60;;
4638;SDS011;2332;38.646;-9.154;2023-04-24T11:00:57;5.17;;;2.80;;
4638;SDS011;2332;38.646;-9.154;2023-04-24T11:03:24;4.53;;;2.73;;
4638;SDS011;2332;38.646;-9.154;2023-04-24T11:05:50;3.10;;;2.30;;
4638;SDS011;2332;38.646;-9.154;2023-04-24T11:08:23;2.87;;;1.80;;
4638;SDS011;2332;38.646;-9.154;2023-04-24T11:19:06;4.50;;;1.90;;
4638;SDS011;2332;38.646;-9.154;2023-04-24T11:21:32;8.73;;;1.80;;
4638;SDS011;2332;38.646;-9.154;2023-04-24T11:23:58;2.73;;;1.87;;
4638;SDS011;2332;38.646;-9.154;2023-04-24T11:26:23;3.83;;;2.10;;
4638;SDS011;2332;38.646;-9.154;2023-04-24T11:28:55;4.27;;;2.20;;
4638;SDS011;2332;38.646;-9.154;2023-04-24T11:31:38;2.60;;;2.03;;
4638;SDS011;2332;38.646;-9.154;2023-04-24T11:34:10;3.73;;;2.13;;
4638;SDS011;2332;38.646;-9.154;2023-04-24T11:36:36;1.90;;;1.80;;
4638;SDS011;2332;38.646;-9.154;2023-04-24T11:39:02;3.30;;;2.03;;
4638;SDS011;2332;38.646;-9.154;2023-04-24T11:41:27;2.13;;;1.77;;
4638;SDS011;2332;38.646;-9.154;2023-04-24T11:43:53;2.17;;;1.60;;
4638;SDS011;2332;38.646;-9.154;2023-04-24T11:46:20;7.20;;;2.20;;
4638;SDS011;2332;38.646;-9.154;2023-04-24T11:48:45;2.57;;;2.27;;
4638;SDS011;2332;38.646;-9.154;2023-04-24T11:51:12;3.07;;;2.07;;
4638;SDS011;2332;38.646;-9.154;2023-04-24T11:53:37;3.33;;;2.10;;
4638;SDS011;2332;38.646;-9.154;2023-04-24T11:56:03;7.57;;;2.03;;
4638;SDS011;2332;38.646;-9.154;2023-04-24T11:58:34;8.60;;;2.50;;
4638;SDS011;2332;38.646;-9.154;2023-04-24T12:00:59;7.07;;;2.10;;
4638;SDS011;2332;38.646;-9.154;2023-04-24T12:03:26;4.53;;;2.00;;
4638;SDS011;2332;38.646;-9.154;2023-04-24T12:05:51;4.40;;;2.27;;
4638;SDS011;2332;38.646;-9.154;2023-04-24T12:08:29;3.13;;;2.10;;
4638;SDS011;2332;38.646;-9.154;2023-04-24T12:10:54;2.70;;;1.73;;
4638;SDS011;2332;38.646;-9.154;2023-04-24T12:13:20;2.47;;;1.47;;
4638;SDS011;2332;38.646;-9.154;2023-04-24T12:15:46;3.67;;;2.03;;
4638;SDS011;2332;38.646;-9.154;2023-04-24T12:18:12;3.03;;;1.80;;
4638;SDS011;2332;38.646;-9.154;2023-04-24T12:20:40;1.90;;;1.63;;
4638;SDS011;2332;38.646;-9.154;2023-04-24T12:23:05;3.77;;;1.20;;
4638;SDS011;2332;38.646;-9.154;2023-04-24T12:25:31;3.53;;;1.20;;
4638;SDS011;2332;38.646;-9.154;2023-04-24T12:30:29;3.10;;;1.80;;
4638;SDS011;2332;38.646;-9.154;2023-04-24T12:32:56;4.10;;;1.43;;
4638;SDS011;2332;38.646;-9.154;2023-04-24T12:35:22;1.30;;;1.30;;
4638;SDS011;2332;38.646;-9.154;2023-04-24T12:37:48;8.47;;;1.50;;
4638;SDS011;2332;38.646;-9.154;2023-04-24T12:40:14;4.10;;;1.57;;
4638;SDS011;2332;38.646;-9.154;2023-04-24T12:42:44;1.93;;;1.83;;
4638;SDS011;2332;38.646;-9.154;2023-04-24T12:45:11;3.77;;;1.70;;
4638;SDS011;2332;38.646;-9.154;2023-04-24T12:47:37;4.10;;;1.43;;
4638;SDS011;2332;38.646;-9.154;2023-04-24T12:50:03;3.70;;;1.57;;
4638;SDS011;2332;38.646;-9.154;2023-04-24T12:52:29;1.70;;;1.13;;
4638;SDS011;2332;38.646;-9.154;2023-04-24T12:54:58;3.53;;;1.47;;
4638;SDS011;2332;38.646;-9.154;2023-04-24T12:57:24;2.20;;;1.70;;
4638;SDS011;2332;38.646;-9.154;2023-04-24T12:59:49;4.17;;;1.87;;
4638;SDS011;2332;38.646;-9.154;2023-04-24T13:02:15;3.53;;;1.77;;
4638;SDS011;2332;38.646;-9.154;2023-04-24T13:04:46;1.63;;;1.40;;
4638;SDS011;2332;38.646;-9.154;2023-04-24T13:07:12;3.03;;;2.07;;
4638;SDS011;2332;38.646;-9.154;2023-04-24T13:09:37;2.20;;;1.40;;
4638;SDS011;2332;38.646;-9.154;2023-04-24T13:12:03;1.60;;;1.50;;
4638;SDS011;2332;38.646;-9.154;2023-04-24T13:14:30;1.43;;;1.33;;
4638;SDS011;2332;38.646;-9.154;2023-04-24T13:16:56;3.00;;;1.30;;
4638;SDS011;2332;38.646;-9.154;2023-04-24T13:19:21;3.07;;;1.20;;
4638;SDS011;2332;38.646;-9.154;2023-04-24T13:21:46;9.23;;;1.70;;
4638;SDS011;2332;38.646;-9.154;2023-04-24T13:24:12;2.37;;;1.40;;
4638;SDS011;2332;38.646;-9.154;2023-04-24T13:26:38;4.80;;;2.00;;
4638;SDS011;2332;38.646;-9.154;2023-04-24T13:29:03;3.43;;;2.07;;
4638;SDS011;2332;38.646;-9.154;2023-04-24T13:31:28;4.03;;;1.40;;
4638;SDS011;2332;38.646;-9.154;2023-04-24T13:33:54;3.93;;;1.87;;
4638;SDS011;2332;38.646;-9.154;2023-04-24T13:36:19;3.43;;;1.90;;
4638;SDS011;2332;38.646;-9.154;2023-04-24T13:38:45;4.97;;;1.97;;
4638;SDS011;2332;38.646;-9.154;2023-04-24T13:41:10;8.40;;;4.37;;
4638;SDS011;2332;38.646;-9.154;2023-04-24T13:43:36;2.30;;;1.90;;
4638;SDS011;2332;38.646;-9.154;2023-04-24T13:46:01;4.50;;;1.50;;
4638;SDS011;2332;38.646;-9.154;2023-04-24T13:48:28;6.07;;;2.27;;
4638;SDS011;2332;38.646;-9.154;2023-04-24T13:50:53;6.50;;;1.80;;
4638;SDS011;2332;38.646;-9.154;2023-04-24T13:53:19;10.10;;;2.50;;
4638;SDS011;2332;38.646;-9.154;2023-04-24T13:55:44;3.00;;;2.00;;
4638;SDS011;2332;38.646;-9.154;2023-04-24T13:58:10;3.33;;;2.20;;
4638;SDS011;2332;38.646;-9.154;2023-04-24T14:00:35;2.77;;;1.80;;
4638;SDS011;2332;38.646;-9.154;2023-04-24T14:03:00;4.93;;;1.57;;
4638;SDS011;2332;38.646;-9.154;2023-04-24T14:05:26;1.83;;;1.50;;
4638;SDS011;2332;38.646;-9.154;2023-04-24T14:07:51;5.50;;;2.07;;
4638;SDS011;2332;38.646;-9.154;2023-04-24T14:10:17;2.83;;;1.83;;
4638;SDS011;2332;38.646;-9.154;2023-04-24T14:12:42;1.80;;;1.63;;
4638;SDS011;2332;38.646;-9.154;2023-04-24T14:15:08;2.90;;;2.17;;
4638;SDS011;2332;38.646;-9.154;2023-04-24T14:17:33;4.70;;;2.20;;
4638;SDS011;2332;38.646;-9.154;2023-04-24T14:19:59;6.17;;;3.00;;
4638;SDS011;2332;38.646;-9.154;2023-04-24T14:22:25;2.87;;;2.20;;
4638;SDS011;2332;38.646;-9.154;2023-04-24T14:24:51;2.03;;;1.93;;
4638;SDS011;2332;38.646;-9.154;2023-04-24T14:27:16;5.37;;;1.80;;
4638;SDS011;2332;38.646;-9.154;2023-04-24T14:29:41;2.97;;;1.80;;
4638;SDS011;2332;38.646;-9.154;2023-04-24T14:32:07;3.67;;;2.10;;
4638;SDS011;2332;38.646;-9.154;2023-04-24T14:34:34;3.70;;;2.23;;
4638;SDS011;2332;38.646;-9.154;2023-04-24T14:36:59;4.97;;;2.03;;
4638;SDS011;2332;38.646;-9.154;2023-04-24T14:39:25;3.90;;;1.97;;
4638;SDS011;2332;38.646;-9.154;2023-04-24T14:41:50;5.23;;;2.43;;
4638;SDS011;2332;38.646;-9.154;2023-04-24T14:44:15;6.03;;;1.77;;
4638;SDS011;2332;38.646;-9.154;2023-04-24T14:46:41;4.00;;;2.27;;
4638;SDS011;2332;38.646;-9.154;2023-04-24T14:49:08;6.63;;;2.23;;
4638;SDS011;2332;38.646;-9.154;2023-04-24T14:51:35;2.80;;;1.97;;
4638;SDS011;2332;38.646;-9.154;2023-04-24T14:54:00;3.03;;;2.10;;
4638;SDS011;2332;38.646;-9.154;2023-04-24T14:56:26;3.80;;;2.00;;
4638;SDS011;2332;38.646;-9.154;2023-04-24T14:58:51;3.13;;;2.43;;
4638;SDS011;2332;38.646;-9.154;2023-04-24T15:01:17;4.53;;;2.70;;
4638;SDS011;2332;38.646;-9.154;2023-04-24T15:03:42;8.33;;;2.70;;